createdAt,value
2022-10-19T00:01:49.395Z,62.25
2022-10-19T00:04:18.872Z,59.50
2022-10-19T00:06:48.277Z,59.25
2022-10-19T00:09:18.877Z,57.25
2022-10-19T00:11:49.978Z,54.00
2022-10-19T00:14:21.454Z,57.75
2022-10-19T00:16:52.196Z,53.75
2022-10-19T00:19:24.132Z,54.50
2022-10-19T00:21:54.168Z,57.00
2022-10-19T00:24:23.633Z,50.75
2022-10-19T00:26:53.078Z,50.50
2022-10-19T00:29:22.706Z,53.00
2022-10-19T00:31:52.485Z,44.25
2022-10-19T00:34:22.131Z,50.50
2022-10-19T00:36:51.642Z,48.75
2022-10-19T00:39:21.112Z,52.25
2022-10-19T00:41:50.677Z,48.25
2022-10-19T00:44:20.449Z,48.00
2022-10-19T00:46:54.544Z,53.50
2022-10-19T00:49:26.781Z,48.25
2022-10-19T00:52:01.525Z,47.25
2022-10-19T00:54:33.454Z,49.75
2022-10-19T00:57:03.173Z,54.75
2022-10-19T00:59:33.856Z,51.00
2022-10-19T01:02:04.711Z,42.00
2022-10-19T01:04:35.594Z,47.50
2022-10-19T01:07:06.320Z,49.00
2022-10-19T01:09:36.133Z,49.50
2022-10-19T01:12:08.561Z,52.25
2022-10-19T01:14:52.313Z,46.75
2022-10-19T01:17:28.169Z,49.75
2022-10-19T01:20:03.792Z,45.75
2022-10-19T01:22:45.714Z,45.25
2022-10-19T01:25:33.629Z,47.00
2022-10-19T01:28:06.629Z,42.75
2022-10-19T01:30:45.436Z,44.50
2022-10-19T01:33:27.781Z,44.00
2022-10-19T01:36:00.273Z,41.00
2022-10-19T01:38:38.349Z,45.25
2022-10-19T01:41:07.836Z,39.25
2022-10-19T01:43:53.443Z,37.50
2022-10-19T01:46:25.836Z,53.00
2022-10-19T01:49:03.173Z,38.00
2022-10-19T01:51:36.065Z,43.50
2022-10-19T01:54:08.719Z,43.75
2022-10-19T01:56:39.645Z,40.25
2022-10-19T01:59:11.495Z,44.25
2022-10-19T02:01:43.835Z,42.00
2022-10-19T02:04:15.962Z,45.75
2022-10-19T02:06:46.230Z,40.25
2022-10-19T02:09:19.686Z,44.50
2022-10-19T02:11:53.397Z,43.00
2022-10-19T02:14:29.145Z,45.25
2022-10-19T02:17:11.329Z,35.50
2022-10-19T02:19:41.293Z,40.00
2022-10-19T02:22:11.559Z,38.75
2022-10-19T02:24:41.150Z,39.00
2022-10-19T02:27:11.066Z,41.25
2022-10-19T02:29:41.000Z,35.75
2022-10-19T02:32:12.345Z,44.25
2022-10-19T02:34:42.631Z,36.00
2022-10-19T02:37:12.221Z,44.25
2022-10-19T02:39:41.971Z,41.25
2022-10-19T02:42:11.422Z,39.75
2022-10-19T02:44:49.667Z,35.25
2022-10-19T02:47:26.312Z,34.00
2022-10-19T02:49:55.973Z,34.00
2022-10-19T02:52:25.472Z,37.75
2022-10-19T02:54:55.908Z,36.25
2022-10-19T02:57:27.170Z,36.50
2022-10-19T02:59:57.206Z,34.25
2022-10-19T03:02:26.828Z,33.75
2022-10-19T03:04:56.223Z,34.00
2022-10-19T03:07:25.722Z,36.25
2022-10-19T03:09:55.615Z,32.75
2022-10-19T03:12:25.195Z,36.25
2022-10-19T03:14:54.673Z,36.50
2022-10-19T03:17:24.150Z,33.50
2022-10-19T03:19:54.353Z,35.00
2022-10-19T03:22:23.911Z,34.50
2022-10-19T03:24:53.439Z,35.25
2022-10-19T03:27:22.933Z,39.25
2022-10-19T03:29:52.454Z,38.25
2022-10-19T03:32:21.939Z,34.25
2022-10-19T03:34:51.440Z,37.00
2022-10-19T03:37:20.922Z,34.75
2022-10-19T03:39:50.313Z,36.75
2022-10-19T03:42:19.753Z,39.00
2022-10-19T03:44:49.234Z,36.75
2022-10-19T03:47:18.751Z,33.00
2022-10-19T03:49:48.275Z,39.50
2022-10-19T03:52:18.030Z,33.50
2022-10-19T03:54:48.054Z,36.75
2022-10-19T03:57:17.492Z,41.00
2022-10-19T03:59:46.998Z,33.25
2022-10-19T04:02:16.427Z,31.50
2022-10-19T04:04:45.806Z,27.75
2022-10-19T04:07:15.266Z,31.25
2022-10-19T04:09:44.780Z,33.00
2022-10-19T04:12:14.201Z,35.00
2022-10-19T04:14:56.703Z,31.50
2022-10-19T04:17:27.671Z,31.50
2022-10-19T04:19:57.084Z,31.00
2022-10-19T04:22:26.612Z,32.00
2022-10-19T04:24:56.089Z,29.50
2022-10-19T04:27:25.555Z,31.50
2022-10-19T04:29:55.181Z,29.50
2022-10-19T04:32:24.681Z,34.00
2022-10-19T04:34:54.186Z,39.50
2022-10-19T04:37:23.818Z,32.75
2022-10-19T04:39:53.395Z,28.75
2022-10-19T04:42:22.799Z,30.00
2022-10-19T04:44:52.389Z,29.25
2022-10-19T04:47:21.882Z,28.00
2022-10-19T04:49:51.703Z,29.00
2022-10-19T04:52:21.067Z,28.50
2022-10-19T04:54:50.541Z,29.25
2022-10-19T04:57:20.019Z,35.00
2022-10-19T04:59:49.473Z,27.25
2022-10-19T05:02:18.853Z,25.25
2022-10-19T05:04:49.982Z,25.50
2022-10-19T05:07:20.101Z,28.25
2022-10-19T05:09:49.617Z,26.50
2022-10-19T05:12:19.163Z,32.50
2022-10-19T05:14:48.701Z,26.25
2022-10-19T05:17:18.260Z,30.50
2022-10-19T05:19:47.679Z,42.75
2022-10-19T05:22:17.130Z,26.50
2022-10-19T05:24:46.491Z,30.75
2022-10-19T05:27:15.934Z,29.50
2022-10-19T05:29:45.400Z,28.25
2022-10-19T05:32:14.987Z,35.00
2022-10-19T05:34:44.489Z,29.50
2022-10-19T05:37:14.369Z,30.50
2022-10-19T05:39:43.957Z,32.25
2022-10-19T05:42:13.421Z,32.00
2022-10-19T05:44:42.858Z,31.00
2022-10-19T05:47:12.273Z,31.00
2022-10-19T05:49:41.795Z,40.50
2022-10-19T05:52:11.284Z,47.25
2022-10-19T05:54:40.870Z,35.75
2022-10-19T05:57:10.331Z,35.75
2022-10-19T05:59:39.786Z,33.50
2022-10-19T06:02:11.381Z,33.50
2022-10-19T06:04:41.736Z,33.25
2022-10-19T06:07:11.135Z,32.75
2022-10-19T06:09:40.629Z,37.25
2022-10-19T06:12:10.704Z,32.00
2022-10-19T06:14:40.220Z,33.50
2022-10-19T06:17:09.701Z,38.00
2022-10-19T06:19:39.464Z,33.00
2022-10-19T06:22:08.925Z,37.50
2022-10-19T06:24:39.475Z,29.75
2022-10-19T06:27:08.999Z,35.00
2022-10-19T06:29:38.552Z,31.50
2022-10-19T06:32:08.106Z,35.75
2022-10-19T06:34:37.576Z,36.00
2022-10-19T06:37:07.041Z,30.25
2022-10-19T06:39:36.556Z,33.25
2022-10-19T06:42:06.080Z,39.25
2022-10-19T06:44:36.624Z,42.75
2022-10-19T06:47:06.126Z,33.50
2022-10-19T06:49:37.227Z,31.00
2022-10-19T06:52:08.950Z,30.25
2022-10-19T06:54:38.403Z,31.75
2022-10-19T06:57:09.455Z,34.75
2022-10-19T06:59:38.897Z,41.00
2022-10-19T07:02:08.489Z,34.75
2022-10-19T07:04:38.036Z,38.00
2022-10-19T07:07:07.527Z,33.75
2022-10-19T07:09:37.293Z,33.00
2022-10-19T07:12:06.805Z,31.75
2022-10-19T07:14:40.055Z,29.75
2022-10-19T07:17:09.773Z,36.75
2022-10-19T07:19:39.935Z,30.00
2022-10-19T07:22:09.526Z,35.00
2022-10-19T07:24:39.851Z,32.00
2022-10-19T07:27:09.363Z,31.75
2022-10-19T07:29:38.977Z,43.75
2022-10-19T07:32:08.601Z,31.25
2022-10-19T07:34:38.078Z,31.75
2022-10-19T07:37:07.472Z,30.00
2022-10-19T07:39:37.966Z,31.50
2022-10-19T07:42:07.428Z,32.75
2022-10-19T07:44:37.713Z,36.50
2022-10-19T07:47:08.157Z,33.25
2022-10-19T07:49:37.613Z,39.50
2022-10-19T07:52:07.159Z,34.25
2022-10-19T07:54:36.776Z,38.25
2022-10-19T07:57:06.237Z,34.25
2022-10-19T07:59:37.189Z,36.75
2022-10-19T08:02:08.861Z,36.50
2022-10-19T08:04:59.400Z,32.75
2022-10-19T08:07:30.095Z,44.25
2022-10-19T08:09:59.618Z,33.25
2022-10-19T08:12:29.124Z,32.00
2022-10-19T08:14:58.580Z,41.25
2022-10-19T08:17:28.199Z,43.50
2022-10-19T08:19:57.602Z,35.25
2022-10-19T08:22:27.175Z,37.25
2022-10-19T08:24:57.024Z,41.75
2022-10-19T08:27:26.606Z,49.00
2022-10-19T08:29:56.104Z,44.00
2022-10-19T08:32:25.547Z,52.50
2022-10-19T08:34:55.015Z,52.25
2022-10-19T08:37:40.174Z,53.25
2022-10-19T08:40:22.093Z,60.00
2022-10-19T08:42:51.976Z,52.50
2022-10-19T08:45:28.801Z,48.00
2022-10-19T08:48:16.841Z,51.00
2022-10-19T08:50:48.605Z,49.00
2022-10-19T08:53:21.016Z,47.25
2022-10-19T08:56:04.508Z,48.75
2022-10-19T08:58:34.487Z,49.00
2022-10-19T09:01:16.265Z,50.25
2022-10-19T09:04:14.801Z,51.25
2022-10-19T09:06:50.661Z,49.00
2022-10-19T09:09:21.755Z,48.75
2022-10-19T09:11:53.068Z,48.00
2022-10-19T09:14:30.167Z,46.75
2022-10-19T09:17:02.740Z,49.50
2022-10-19T09:19:33.364Z,58.25
2022-10-19T09:22:03.035Z,58.75
2022-10-19T09:24:38.297Z,58.50
2022-10-19T09:27:12.797Z,61.00
2022-10-19T09:29:51.357Z,56.50
2022-10-19T09:32:23.895Z,56.50
2022-10-19T09:34:55.698Z,61.25
2022-10-19T09:37:26.734Z,56.25
2022-10-19T09:39:58.370Z,54.50
2022-10-19T09:42:34.807Z,57.75
2022-10-19T09:45:14.219Z,66.00
2022-10-19T09:47:47.734Z,62.00
2022-10-19T09:50:17.129Z,65.00
2022-10-19T09:52:48.010Z,63.00
2022-10-19T09:55:17.872Z,61.50
2022-10-19T09:57:48.523Z,68.00
2022-10-19T10:00:26.417Z,66.75
2022-10-19T10:02:58.677Z,68.25
2022-10-19T10:05:35.772Z,75.25
2022-10-19T10:08:06.616Z,65.75
2022-10-19T10:10:40.596Z,66.25
2022-10-19T10:13:20.754Z,68.50
2022-10-19T10:15:53.543Z,68.25
2022-10-19T10:18:25.644Z,58.00
2022-10-19T10:21:07.111Z,66.25
2022-10-19T10:23:38.132Z,66.00
2022-10-19T10:26:17.153Z,70.00
2022-10-19T10:28:51.828Z,65.75
2022-10-19T10:31:24.961Z,60.75
2022-10-19T10:34:00.025Z,62.00
2022-10-19T10:36:33.759Z,65.25
2022-10-19T10:39:07.135Z,62.75
2022-10-19T10:41:39.944Z,64.00
2022-10-19T10:44:17.261Z,57.50
2022-10-19T10:46:49.953Z,61.50
2022-10-19T10:49:23.208Z,63.00
2022-10-19T10:51:56.170Z,61.25
2022-10-19T10:54:28.521Z,59.50
2022-10-19T10:57:18.075Z,60.50
2022-10-19T10:59:54.548Z,63.25
2022-10-19T11:02:42.446Z,58.50
2022-10-19T11:05:11.998Z,60.50
2022-10-19T11:07:43.773Z,60.75
2022-10-19T11:10:18.805Z,65.75
2022-10-19T11:12:51.654Z,68.00
2022-10-19T11:15:24.274Z,61.25
2022-10-19T11:18:09.843Z,59.00
2022-10-19T11:20:43.460Z,60.00
2022-10-19T11:23:21.620Z,61.00
2022-10-19T11:26:02.928Z,64.25
2022-10-19T11:28:32.905Z,56.50
2022-10-19T11:31:20.947Z,62.00
2022-10-19T11:33:50.596Z,64.25
2022-10-19T11:36:22.963Z,56.75
2022-10-19T11:38:52.408Z,55.50
2022-10-19T11:41:28.358Z,59.25
2022-10-19T11:43:57.708Z,57.25
2022-10-19T11:46:33.262Z,55.50
2022-10-19T11:49:18.748Z,59.75
2022-10-19T11:52:03.998Z,61.50
2022-10-19T11:54:39.377Z,60.00
2022-10-19T11:57:28.038Z,55.00
2022-10-19T12:00:14.354Z,57.25
2022-10-19T12:02:48.704Z,67.00
2022-10-19T12:05:22.688Z,63.50
2022-10-19T12:08:11.278Z,62.75
2022-10-19T12:10:55.563Z,59.00
2022-10-19T12:13:31.898Z,64.75
2022-10-19T12:16:02.305Z,55.00
2022-10-19T12:18:36.191Z,59.50
2022-10-19T12:21:25.893Z,57.75
2022-10-19T12:23:57.309Z,60.75
2022-10-19T12:26:29.757Z,56.50
2022-10-19T12:29:02.059Z,57.00
2022-10-19T12:31:32.413Z,61.00
2022-10-19T12:34:12.032Z,60.50
2022-10-19T12:36:57.151Z,57.50
2022-10-19T12:39:27.003Z,61.00
2022-10-19T12:42:02.605Z,57.25
2022-10-19T12:44:52.712Z,60.75
2022-10-19T12:47:25.574Z,50.25
2022-10-19T12:49:59.145Z,50.00
2022-10-19T12:52:40.422Z,64.25
2022-10-19T12:55:14.907Z,58.75
2022-10-19T12:57:49.424Z,59.25
2022-10-19T13:00:22.291Z,56.50
2022-10-19T13:03:12.295Z,59.00
2022-10-19T13:05:42.138Z,54.25
2022-10-19T13:08:14.488Z,61.75
2022-10-19T13:11:04.294Z,53.75
2022-10-19T13:13:49.751Z,59.25
2022-10-19T13:16:31.853Z,54.00
2022-10-19T13:19:01.868Z,54.00
2022-10-19T13:21:49.635Z,56.00
2022-10-19T13:24:22.220Z,56.25
2022-10-19T13:27:07.204Z,52.50
2022-10-19T13:29:42.760Z,55.75
2022-10-19T13:32:30.728Z,58.50
2022-10-19T13:35:18.161Z,57.50
2022-10-19T13:37:47.715Z,53.75
2022-10-19T13:40:24.524Z,56.00
2022-10-19T13:43:00.238Z,55.50
2022-10-19T13:45:29.910Z,59.25
2022-10-19T13:48:14.037Z,57.75
2022-10-19T13:50:46.773Z,55.50
2022-10-19T13:53:22.310Z,56.50
2022-10-19T13:56:01.034Z,50.75
2022-10-19T13:58:33.734Z,53.50
2022-10-19T14:01:13.961Z,57.25
2022-10-19T14:03:47.391Z,58.50
2022-10-19T14:06:43.466Z,55.75
2022-10-19T14:09:33.043Z,50.25
2022-10-19T14:12:14.075Z,58.25
2022-10-19T14:14:45.467Z,55.00
2022-10-19T14:17:20.968Z,56.25
2022-10-19T14:19:53.510Z,59.75
2022-10-19T14:22:27.593Z,54.75
2022-10-19T14:25:16.249Z,59.50
2022-10-19T14:27:48.073Z,55.50
2022-10-19T14:30:33.200Z,55.25
2022-10-19T14:33:08.798Z,54.50
2022-10-19T14:35:40.464Z,54.75
2022-10-19T14:38:17.747Z,53.25
2022-10-19T14:40:47.973Z,57.00
2022-10-19T14:43:25.586Z,59.50
2022-10-19T14:46:10.641Z,55.75
2022-10-19T14:48:42.025Z,53.00
2022-10-19T14:51:19.270Z,55.75
2022-10-19T14:53:49.105Z,53.50
2022-10-19T14:56:23.634Z,60.50
2022-10-19T14:58:57.076Z,56.25
2022-10-19T15:01:27.774Z,56.00
2022-10-19T15:03:58.115Z,55.75
2022-10-19T15:06:30.320Z,50.50
2022-10-19T15:09:04.884Z,58.50
2022-10-19T15:11:48.230Z,55.50
2022-10-19T15:14:26.154Z,53.50
2022-10-19T15:16:57.454Z,61.00
2022-10-19T15:19:40.079Z,55.25
2022-10-19T15:22:13.011Z,57.25
2022-10-19T15:24:56.932Z,55.50
2022-10-19T15:27:55.106Z,59.50
2022-10-19T15:30:33.349Z,54.75
2022-10-19T15:33:03.434Z,61.75
2022-10-19T15:35:34.193Z,53.75
2022-10-19T15:38:07.336Z,63.75
2022-10-19T15:40:39.003Z,56.75
2022-10-19T15:43:26.746Z,53.25
2022-10-19T15:46:02.984Z,53.50
2022-10-19T15:48:51.140Z,59.00
2022-10-19T15:51:27.482Z,56.75
2022-10-19T15:54:04.076Z,58.25
2022-10-19T15:56:35.765Z,61.75
2022-10-19T15:59:07.111Z,59.00
2022-10-19T16:01:37.139Z,58.50
2022-10-19T16:04:07.235Z,63.75
2022-10-19T16:06:38.744Z,56.25
2022-10-19T16:09:09.796Z,59.00
2022-10-19T16:11:39.485Z,61.00
2022-10-19T16:14:09.298Z,61.25
2022-10-19T16:16:38.987Z,59.50
2022-10-19T16:19:08.468Z,57.75
2022-10-19T16:21:38.612Z,58.25
2022-10-19T16:24:08.206Z,58.00
2022-10-19T16:26:37.748Z,65.50
2022-10-19T16:29:07.275Z,60.75
2022-10-19T16:31:36.755Z,59.75
2022-10-19T16:34:06.261Z,59.50
2022-10-19T16:36:35.724Z,64.00
2022-10-19T16:39:06.178Z,62.50
2022-10-19T16:41:35.866Z,54.75
2022-10-19T16:44:05.353Z,62.00
2022-10-19T16:46:34.803Z,57.25
2022-10-19T16:49:04.194Z,63.75
2022-10-19T16:51:40.562Z,59.00
2022-10-19T16:54:12.328Z,57.75
2022-10-19T16:56:46.581Z,61.75
2022-10-19T16:59:17.943Z,60.75
2022-10-19T17:01:48.545Z,58.00
2022-10-19T17:04:19.776Z,58.50
2022-10-19T17:06:50.163Z,59.25
2022-10-19T17:12:10.220Z,59.50
2022-10-19T17:14:40.835Z,63.75
2022-10-19T17:17:12.019Z,64.00
2022-10-19T17:19:41.914Z,57.25
2022-10-19T17:22:11.411Z,60.00
2022-10-19T17:24:40.809Z,59.75
2022-10-19T17:27:10.453Z,61.75
2022-10-19T17:29:40.002Z,60.75
2022-10-19T17:32:09.637Z,58.00
2022-10-19T17:34:39.344Z,61.25
2022-10-19T17:37:08.886Z,59.00
2022-10-19T17:39:38.439Z,64.50
2022-10-19T17:42:07.979Z,60.75
2022-10-19T17:44:37.700Z,60.25
2022-10-19T17:47:07.290Z,59.75
2022-10-19T17:49:36.724Z,59.75
2022-10-19T17:52:06.175Z,60.75
2022-10-19T17:54:43.593Z,62.00
2022-10-19T17:57:24.077Z,59.75
2022-10-19T17:59:55.858Z,63.00
2022-10-19T18:02:25.565Z,61.50
2022-10-19T18:04:55.171Z,61.25
2022-10-19T18:07:26.971Z,62.25
2022-10-19T18:09:56.429Z,64.00
2022-10-19T18:12:25.989Z,58.50
2022-10-19T18:14:55.450Z,63.25
2022-10-19T18:17:27.690Z,57.25
2022-10-19T18:19:57.462Z,64.00
2022-10-19T18:22:26.894Z,66.00
2022-10-19T18:24:56.408Z,62.00
2022-10-19T18:27:26.916Z,62.75
2022-10-19T18:29:56.581Z,64.50
2022-10-19T18:32:26.056Z,63.25
2022-10-19T18:34:55.548Z,62.25
2022-10-19T18:37:24.995Z,62.50
2022-10-19T18:39:54.503Z,62.75
2022-10-19T18:42:24.036Z,61.25
2022-10-19T18:44:53.499Z,61.75
2022-10-19T18:47:23.327Z,60.75
2022-10-19T18:49:52.853Z,62.00
2022-10-19T18:52:22.344Z,60.50
2022-10-19T18:54:51.839Z,62.00
2022-10-19T18:57:21.231Z,60.75
2022-10-19T18:59:50.665Z,62.75
2022-10-19T19:02:22.768Z,62.25
2022-10-19T19:04:58.078Z,60.25
2022-10-19T19:07:27.543Z,64.50
2022-10-19T19:09:57.080Z,63.75
2022-10-19T19:12:26.663Z,64.00
2022-10-19T19:14:56.252Z,63.75
2022-10-19T19:17:25.725Z,67.25
2022-10-19T19:19:55.309Z,69.25
2022-10-19T19:22:27.431Z,60.75
2022-10-19T19:24:56.871Z,63.00
2022-10-19T19:27:30.842Z,66.75
2022-10-19T19:30:02.075Z,67.50
2022-10-19T19:32:31.545Z,65.50
2022-10-19T19:35:01.040Z,66.50
2022-10-19T19:37:31.389Z,63.00
2022-10-19T19:40:00.872Z,65.25
2022-10-19T19:42:30.318Z,68.75
2022-10-19T19:44:59.897Z,71.00
2022-10-19T19:47:29.324Z,63.00
2022-10-19T19:49:58.829Z,66.25
2022-10-19T19:52:28.347Z,64.75
2022-10-19T19:54:57.881Z,68.50
2022-10-19T19:57:27.384Z,68.25
2022-10-19T19:59:56.847Z,64.00
2022-10-19T20:02:26.301Z,63.75
2022-10-19T20:04:55.726Z,67.00
2022-10-19T20:07:25.230Z,65.75
2022-10-19T20:09:55.299Z,67.25
2022-10-19T20:12:24.742Z,61.00
2022-10-19T20:14:54.755Z,64.25
2022-10-19T20:17:26.314Z,64.50
2022-10-19T20:19:55.742Z,66.50
2022-10-19T20:22:27.450Z,62.25
2022-10-19T20:24:56.906Z,65.50
2022-10-19T20:27:27.282Z,66.50
2022-10-19T20:29:59.885Z,62.00
2022-10-19T20:32:30.788Z,64.25
2022-10-19T20:35:00.333Z,64.00
2022-10-19T20:37:30.470Z,64.00
2022-10-19T20:40:00.716Z,70.75
2022-10-19T20:42:31.042Z,67.75
2022-10-19T20:45:00.528Z,65.00
2022-10-19T20:47:30.117Z,63.00
2022-10-19T20:49:59.539Z,67.75
2022-10-19T20:52:29.022Z,65.25
2022-10-19T20:54:58.443Z,71.00
2022-10-19T20:57:27.867Z,68.00
2022-10-19T20:59:57.407Z,65.50
2022-10-19T21:02:26.797Z,64.75
2022-10-19T21:04:56.326Z,67.00
2022-10-19T21:07:25.845Z,68.25
2022-10-19T21:09:55.969Z,63.00
2022-10-19T21:12:25.426Z,64.00
2022-10-19T21:14:54.806Z,69.50
2022-10-19T21:17:24.289Z,67.00
2022-10-19T21:19:57.222Z,65.75
2022-10-19T21:22:26.973Z,62.25
2022-10-19T21:24:56.402Z,64.75
2022-10-19T21:27:25.848Z,67.75
2022-10-19T21:29:55.356Z,68.75
2022-10-19T21:32:24.925Z,68.50
2022-10-19T21:34:54.475Z,69.75
2022-10-19T21:37:23.940Z,65.00
2022-10-19T21:39:53.385Z,68.00
2022-10-19T21:42:22.843Z,68.25
2022-10-19T21:45:01.014Z,67.75
2022-10-19T21:47:31.197Z,65.00
2022-10-19T21:50:00.766Z,69.25
2022-10-19T21:52:30.271Z,68.00
2022-10-19T21:54:59.676Z,68.00
2022-10-19T21:57:29.036Z,68.50
2022-10-19T21:59:58.457Z,63.75
2022-10-19T22:02:27.943Z,69.75
2022-10-19T22:04:57.447Z,65.50
2022-10-19T22:07:26.902Z,71.50
2022-10-19T22:09:56.551Z,63.50
2022-10-19T22:12:26.192Z,65.00
2022-10-19T22:14:55.746Z,65.50
2022-10-19T22:17:25.256Z,61.25
2022-10-19T22:19:54.850Z,68.25
2022-10-19T22:22:24.298Z,68.00
2022-10-19T22:24:53.676Z,66.50
2022-10-19T22:27:23.202Z,69.00
2022-10-19T22:29:55.588Z,62.75
2022-10-19T22:32:25.435Z,65.75
2022-10-19T22:34:54.912Z,64.75
2022-10-19T22:37:24.394Z,64.00
2022-10-19T22:39:53.943Z,68.75
2022-10-19T22:42:23.269Z,70.00
2022-10-19T22:44:52.473Z,69.00
2022-10-19T22:47:21.752Z,66.50
2022-10-19T22:49:50.924Z,66.50
2022-10-19T22:52:20.182Z,66.00
2022-10-19T22:54:49.394Z,65.00
2022-10-19T22:57:18.825Z,67.25
2022-10-19T22:59:48.016Z,61.75
2022-10-19T23:02:17.211Z,62.25
2022-10-19T23:04:46.475Z,70.00
2022-10-19T23:07:15.679Z,71.00
2022-10-19T23:09:44.879Z,67.00
2022-10-19T23:12:14.253Z,66.50
2022-10-19T23:14:43.407Z,66.00
2022-10-19T23:17:12.522Z,67.50
2022-10-19T23:19:41.700Z,64.50
2022-10-19T23:22:10.932Z,65.50
2022-10-19T23:24:40.072Z,64.00
2022-10-19T23:27:09.175Z,62.50
2022-10-19T23:29:38.270Z,65.50
2022-10-19T23:32:07.533Z,61.50
2022-10-19T23:34:36.636Z,65.50
2022-10-19T23:37:05.826Z,73.00
2022-10-19T23:39:35.182Z,73.50
2022-10-19T23:42:04.484Z,67.50
2022-10-19T23:44:33.991Z,67.50
2022-10-19T23:47:03.487Z,69.00
2022-10-19T23:49:33.021Z,66.75
2022-10-19T23:52:02.448Z,67.00
2022-10-19T23:54:31.904Z,69.75
2022-10-19T23:57:01.362Z,70.00
2022-10-19T23:59:30.778Z,65.75
